createdAt,value
2022-12-27T00:01:18.912Z,7.50
2022-12-27T00:06:09.820Z,7.60
2022-12-27T00:10:55.108Z,7.60
2022-12-27T00:15:38.796Z,7.50
2022-12-27T00:20:23.008Z,7.50
2022-12-27T00:25:08.980Z,7.50
2022-12-27T00:29:52.730Z,7.50
2022-12-27T00:34:36.711Z,7.40
2022-12-27T00:39:23.913Z,7.40
2022-12-27T00:44:09.761Z,7.40
2022-12-27T00:48:53.581Z,7.30
2022-12-27T00:53:37.747Z,7.30
2022-12-27T00:58:21.491Z,7.30
2022-12-27T01:03:06.602Z,7.30
2022-12-27T01:07:50.639Z,7.20
2022-12-27T01:12:35.687Z,7.10
2022-12-27T01:17:19.609Z,7.20
2022-12-27T01:22:05.139Z,7.20
2022-12-27T01:26:48.979Z,7.10
2022-12-27T01:31:32.628Z,7.20
2022-12-27T01:36:19.083Z,7.20
2022-12-27T01:41:24.985Z,7.20
2022-12-27T01:46:09.135Z,7.20
2022-12-27T01:50:57.188Z,7.20
2022-12-27T01:55:45.850Z,7.20
2022-12-27T02:00:32.187Z,7.10
2022-12-27T02:05:18.800Z,7.20
2022-12-27T02:10:04.804Z,7.10
2022-12-27T02:14:50.441Z,7.10
2022-12-27T02:19:50.530Z,7.20
2022-12-27T02:24:59.021Z,7.40
2022-12-27T02:29:57.140Z,7.60
2022-12-27T02:34:48.476Z,7.40
2022-12-27T02:39:36.556Z,7.30
2022-12-27T02:44:40.769Z,7.20
2022-12-27T02:49:45.935Z,7.20
2022-12-27T02:54:46.444Z,7.20
2022-12-27T03:00:04.873Z,7.20
2022-12-27T03:05:13.636Z,7.10
2022-12-27T03:10:27.138Z,7.40
2022-12-27T03:15:39.643Z,7.20
2022-12-27T03:20:42.307Z,7.10
2022-12-27T03:25:30.188Z,7.00
2022-12-27T03:30:32.072Z,6.90
2022-12-27T03:35:21.005Z,6.90
2022-12-27T03:40:12.580Z,6.80
2022-12-27T03:44:56.456Z,6.80
2022-12-27T03:49:45.332Z,6.70
2022-12-27T03:54:33.047Z,6.80
2022-12-27T03:59:18.015Z,6.70
2022-12-27T04:04:02.348Z,6.90
2022-12-27T04:09:03.701Z,7.00
2022-12-27T04:14:05.577Z,6.80
2022-12-27T04:19:08.294Z,6.70
2022-12-27T04:24:09.408Z,6.60
2022-12-27T04:29:11.554Z,6.50
2022-12-27T04:34:13.946Z,6.40
2022-12-27T04:38:57.461Z,6.40
2022-12-27T04:43:58.481Z,6.40
2022-12-27T04:48:59.421Z,6.40
2022-12-27T04:54:02.028Z,6.40
2022-12-27T04:58:59.296Z,6.30
2022-12-27T05:03:44.081Z,6.30
2022-12-27T05:08:45.607Z,6.20
2022-12-27T05:13:47.357Z,6.20
2022-12-27T05:18:30.880Z,6.10
2022-12-27T05:23:31.798Z,6.10
2022-12-27T05:28:15.756Z,6.00
2022-12-27T05:33:00.756Z,6.00
2022-12-27T05:37:44.637Z,6.00
2022-12-27T05:42:30.199Z,6.00
2022-12-27T05:47:13.708Z,6.10
2022-12-27T05:51:58.700Z,6.20
2022-12-27T05:56:42.167Z,6.20
2022-12-27T06:01:27.241Z,6.20
2022-12-27T06:06:11.534Z,6.30
2022-12-27T06:11:05.506Z,6.20
2022-12-27T06:15:50.045Z,6.30
2022-12-27T06:20:33.568Z,6.30
2022-12-27T06:25:19.342Z,6.30
2022-12-27T06:30:05.049Z,6.20
2022-12-27T06:34:48.733Z,6.20
2022-12-27T06:39:32.262Z,6.20
2022-12-27T06:44:16.097Z,6.20
2022-12-27T06:49:01.061Z,6.00
2022-12-27T06:53:44.589Z,6.00
2022-12-27T06:58:28.192Z,6.00
2022-12-27T07:03:11.771Z,6.10
2022-12-27T07:07:56.700Z,6.00
2022-12-27T07:12:41.655Z,6.00
2022-12-27T07:17:25.287Z,5.90
2022-12-27T07:22:10.398Z,5.80
2022-12-27T07:26:55.402Z,5.80
2022-12-27T07:31:38.888Z,5.70
2022-12-27T07:36:25.435Z,5.80
2022-12-27T07:41:09.488Z,5.80
2022-12-27T07:45:55.324Z,5.80
2022-12-27T07:50:39.014Z,5.80
2022-12-27T07:55:22.689Z,5.80
2022-12-27T08:00:07.648Z,5.80
2022-12-27T08:04:52.561Z,5.80
2022-12-27T08:09:39.618Z,5.90
2022-12-27T08:14:23.181Z,5.90
2022-12-27T08:19:08.653Z,5.90
2022-12-27T08:23:53.828Z,5.90
2022-12-27T08:28:37.627Z,6.00
2022-12-27T08:33:21.216Z,6.10
2022-12-27T08:38:06.667Z,6.10
2022-12-27T08:42:51.730Z,6.20
2022-12-27T08:47:35.544Z,6.10
2022-12-27T08:52:19.381Z,6.20
2022-12-27T08:57:03.310Z,6.20
2022-12-27T09:01:48.884Z,6.20
2022-12-27T09:06:33.807Z,6.20
2022-12-27T09:11:19.627Z,6.30
2022-12-27T09:16:09.078Z,6.30
2022-12-27T09:20:54.105Z,6.50
2022-12-27T09:25:37.978Z,6.60
2022-12-27T09:30:22.193Z,6.70
2022-12-27T09:35:06.676Z,6.70
2022-12-27T09:39:51.800Z,6.80
2022-12-27T09:44:41.493Z,6.80
2022-12-27T09:49:33.029Z,7.00
2022-12-27T09:54:21.489Z,7.20
2022-12-27T09:59:14.392Z,7.30
2022-12-27T10:03:58.022Z,7.50
2022-12-27T10:08:51.976Z,7.70
2022-12-27T10:13:46.488Z,7.80
2022-12-27T10:18:40.301Z,7.60
2022-12-27T10:23:55.027Z,7.20
2022-12-27T10:28:42.397Z,7.20
2022-12-27T10:33:29.678Z,7.30
2022-12-27T10:38:14.837Z,7.30
2022-12-27T10:43:04.870Z,7.30
2022-12-27T10:47:48.586Z,7.40
2022-12-27T10:52:35.789Z,7.50
2022-12-27T11:03:34.475Z,7.50
2022-12-27T11:08:21.905Z,7.40
2022-12-27T11:13:07.596Z,7.30
2022-12-27T11:17:53.244Z,7.20
2022-12-27T11:22:45.593Z,7.20
2022-12-27T11:27:31.485Z,7.30
2022-12-27T11:32:15.638Z,7.30
2022-12-27T11:37:06.381Z,7.50
2022-12-27T11:41:54.352Z,7.60
2022-12-27T11:46:42.916Z,7.60
2022-12-27T11:51:53.264Z,7.40
2022-12-27T11:56:38.377Z,7.40
2022-12-27T12:01:47.621Z,7.60
2022-12-27T12:06:46.514Z,7.70
2022-12-27T12:11:47.435Z,7.90
2022-12-27T12:17:04.684Z,7.90
2022-12-27T12:22:03.646Z,7.90
2022-12-27T12:26:57.659Z,8.00
2022-12-27T12:32:04.414Z,8.00
2022-12-27T12:37:03.549Z,7.80
2022-12-27T12:42:01.946Z,7.70
2022-12-27T12:46:54.408Z,8.20
2022-12-27T12:52:12.421Z,9.50
2022-12-27T12:57:23.199Z,9.80
2022-12-27T13:02:28.094Z,10.90
2022-12-27T13:07:42.871Z,11.00
2022-12-27T13:12:33.402Z,11.20
2022-12-27T13:17:24.944Z,10.50
2022-12-27T13:22:16.946Z,10.80
2022-12-27T13:27:08.893Z,11.00
2022-12-27T13:31:59.122Z,10.50
2022-12-27T13:36:57.825Z,10.70
2022-12-27T13:41:55.408Z,10.00
2022-12-27T13:46:52.852Z,10.80
2022-12-27T13:51:45.950Z,11.90
2022-12-27T14:02:08.260Z,10.80
2022-12-27T14:07:09.809Z,10.00
2022-12-27T14:12:06.159Z,9.80
2022-12-27T14:17:01.351Z,10.00
2022-12-27T14:22:00.388Z,9.90
2022-12-27T14:27:16.230Z,9.30
2022-12-27T14:32:37.761Z,9.00
2022-12-27T14:37:55.327Z,8.70
2022-12-27T14:43:23.862Z,8.50
2022-12-27T14:48:37.141Z,8.30
2022-12-27T14:54:01.366Z,8.20
2022-12-27T14:59:05.407Z,8.10
2022-12-27T15:03:59.442Z,7.90
2022-12-27T15:08:58.155Z,7.90
2022-12-27T15:13:57.714Z,7.80
2022-12-27T15:19:02.129Z,7.70
2022-12-27T15:23:53.645Z,7.60
2022-12-27T15:28:54.895Z,7.50
2022-12-27T15:33:45.820Z,7.50
2022-12-27T15:38:53.905Z,7.40
2022-12-27T15:44:09.946Z,7.20
2022-12-27T15:49:31.391Z,7.10
2022-12-27T15:54:39.158Z,7.00
2022-12-27T15:59:48.406Z,6.70
2022-12-27T16:04:47.700Z,6.50
2022-12-27T16:09:39.046Z,6.20
2022-12-27T16:14:30.315Z,6.10
2022-12-27T16:19:51.075Z,6.00
2022-12-27T16:24:34.757Z,5.90
2022-12-27T16:29:19.909Z,5.80
2022-12-27T16:34:15.079Z,5.80
2022-12-27T16:39:26.440Z,5.70
2022-12-27T16:44:21.862Z,5.70
2022-12-27T16:49:35.824Z,5.60
2022-12-27T16:54:27.899Z,5.50
2022-12-27T16:59:44.650Z,5.40
2022-12-27T17:04:56.782Z,5.30
2022-12-27T17:09:45.496Z,5.30
2022-12-27T17:14:33.081Z,5.20
2022-12-27T17:19:21.316Z,5.50
2022-12-27T17:24:10.404Z,5.80
2022-12-27T17:29:03.014Z,5.90
2022-12-27T17:34:01.557Z,5.70
2022-12-27T17:38:55.908Z,5.50
2022-12-27T17:44:08.123Z,5.20
2022-12-27T17:48:56.485Z,5.20
2022-12-27T17:54:05.315Z,5.40
2022-12-27T17:58:58.067Z,5.30
2022-12-27T18:03:46.340Z,5.20
2022-12-27T18:08:34.240Z,5.20
2022-12-27T18:13:22.460Z,5.20
2022-12-27T18:18:10.210Z,5.20
2022-12-27T18:22:54.894Z,5.00
2022-12-27T18:27:39.210Z,5.00
2022-12-27T18:32:26.545Z,5.10
2022-12-27T18:37:14.602Z,5.30
2022-12-27T18:42:00.889Z,5.50
2022-12-27T18:46:45.349Z,5.50
2022-12-27T18:51:34.517Z,5.40
2022-12-27T18:56:32.621Z,5.30
2022-12-27T19:07:13.009Z,4.70
2022-12-27T19:12:01.077Z,4.30
2022-12-27T19:16:58.091Z,4.00
2022-12-27T19:21:45.078Z,3.70
2022-12-27T19:26:36.911Z,3.40
2022-12-27T19:31:24.028Z,3.30
2022-12-27T19:36:14.449Z,3.20
2022-12-27T19:41:03.885Z,3.00
2022-12-27T19:45:48.509Z,2.90
2022-12-27T19:50:35.355Z,3.10
2022-12-27T19:55:24.478Z,2.80
2022-12-27T20:00:16.895Z,2.60
2022-12-27T20:05:00.730Z,2.50
2022-12-27T20:09:46.492Z,2.70
2022-12-27T20:14:33.452Z,2.70
2022-12-27T20:19:18.344Z,3.00
2022-12-27T20:24:02.050Z,3.10
2022-12-27T20:28:49.240Z,2.80
2022-12-27T20:33:33.232Z,2.60
2022-12-27T20:38:16.896Z,2.60
2022-12-27T20:43:00.943Z,2.40
2022-12-27T20:47:46.650Z,2.20
2022-12-27T20:52:31.268Z,2.00
2022-12-27T20:57:15.736Z,2.00
2022-12-27T21:02:00.388Z,1.90
2022-12-27T21:06:45.623Z,2.10
2022-12-27T21:11:31.830Z,2.00
2022-12-27T21:16:17.726Z,1.90
2022-12-27T21:21:06.224Z,1.70
2022-12-27T21:25:51.236Z,1.60
2022-12-27T21:30:35.239Z,1.50
2022-12-27T21:35:18.877Z,1.50
2022-12-27T21:40:02.660Z,1.40
2022-12-27T21:44:47.623Z,1.30
2022-12-27T21:49:31.226Z,1.60
2022-12-27T21:54:16.409Z,1.80
2022-12-27T21:59:00.756Z,1.80
2022-12-27T22:03:47.505Z,1.60
2022-12-27T22:08:32.706Z,1.80
2022-12-27T22:13:16.490Z,2.40
2022-12-27T22:18:00.276Z,2.60
2022-12-27T22:22:45.373Z,2.50
2022-12-27T22:27:29.115Z,2.40
2022-12-27T22:32:12.847Z,2.50
2022-12-27T22:36:56.541Z,2.20
2022-12-27T22:41:41.788Z,2.20
2022-12-27T22:46:26.437Z,2.50
2022-12-27T22:51:11.205Z,3.10
2022-12-27T22:55:54.789Z,3.10
2022-12-27T23:00:40.608Z,3.00
2022-12-27T23:05:24.225Z,2.60
2022-12-27T23:10:09.432Z,2.30
2022-12-27T23:14:52.966Z,2.00
2022-12-27T23:19:38.043Z,1.80
2022-12-27T23:24:21.731Z,1.60
2022-12-27T23:29:06.141Z,1.60
2022-12-27T23:33:50.213Z,1.60
2022-12-27T23:38:35.390Z,1.70
2022-12-27T23:43:51.074Z,1.90
2022-12-27T23:48:23.955Z,1.80
2022-12-27T23:53:07.912Z,1.60
2022-12-27T23:57:53.356Z,1.40
